createdAt,value
2022-09-28T00:00:48.176Z,981.78
2022-09-28T00:01:48.274Z,981.74
2022-09-28T00:02:48.258Z,981.76
2022-09-28T00:03:48.166Z,981.74
2022-09-28T00:04:48.119Z,981.75
2022-09-28T00:05:48.114Z,981.73
2022-09-28T00:06:48.096Z,981.71
2022-09-28T00:07:48.088Z,981.74
2022-09-28T00:08:48.116Z,981.72
2022-09-28T00:09:48.046Z,981.71
2022-09-28T00:10:48.057Z,981.68
2022-09-28T00:11:48.037Z,981.65
2022-09-28T00:12:48.017Z,981.59
2022-09-28T00:13:48.047Z,981.56
2022-09-28T00:14:47.988Z,981.53
2022-09-28T00:15:47.971Z,981.53
2022-09-28T00:16:48.026Z,981.46
2022-09-28T00:17:47.957Z,981.46
2022-09-28T00:18:47.954Z,981.50
2022-09-28T00:19:47.917Z,981.48
2022-09-28T00:20:47.944Z,981.46
2022-09-28T00:21:48.025Z,981.47
2022-09-28T00:22:47.878Z,981.46
2022-09-28T00:23:47.921Z,981.45
2022-09-28T00:24:47.896Z,981.46
2022-09-28T00:25:48.885Z,981.45
2022-09-28T00:26:47.827Z,981.43
2022-09-28T00:27:47.807Z,981.38
2022-09-28T00:28:47.816Z,981.35
2022-09-28T00:29:47.786Z,981.38
2022-09-28T00:30:47.775Z,981.36
2022-09-28T00:31:47.823Z,981.35
2022-09-28T00:32:47.748Z,981.36
2022-09-28T00:33:47.749Z,981.35
2022-09-28T00:34:47.717Z,981.31
2022-09-28T00:35:47.708Z,981.36
2022-09-28T00:36:47.694Z,981.27
2022-09-28T00:37:47.687Z,981.32
2022-09-28T00:38:47.697Z,981.24
2022-09-28T00:39:47.659Z,981.30
2022-09-28T00:40:47.688Z,981.26
2022-09-28T00:41:47.634Z,981.28
2022-09-28T00:42:47.617Z,981.23
2022-09-28T00:43:47.617Z,981.23
2022-09-28T00:44:47.586Z,981.21
2022-09-28T00:45:47.604Z,981.19
2022-09-28T00:46:47.566Z,981.14
2022-09-28T00:47:47.559Z,981.18
2022-09-28T00:48:47.547Z,981.13
2022-09-28T00:49:47.547Z,981.17
2022-09-28T00:50:47.506Z,981.10
2022-09-28T00:51:47.510Z,981.13
2022-09-28T00:52:47.482Z,981.13
2022-09-28T00:53:47.498Z,981.08
2022-09-28T00:54:47.455Z,981.10
2022-09-28T00:55:47.447Z,981.11
2022-09-28T00:56:47.431Z,981.13
2022-09-28T00:57:47.428Z,981.13
2022-09-28T00:58:47.417Z,981.15
2022-09-28T00:59:47.402Z,981.10
2022-09-28T01:00:47.425Z,981.09
2022-09-28T01:01:47.387Z,981.13
2022-09-28T01:02:47.347Z,981.05
2022-09-28T01:03:47.380Z,981.06
2022-09-28T01:04:47.320Z,981.07
2022-09-28T01:05:47.315Z,981.04
2022-09-28T01:06:47.308Z,981.04
2022-09-28T01:07:47.297Z,981.03
2022-09-28T01:08:47.284Z,981.01
2022-09-28T01:09:47.278Z,981.03
2022-09-28T01:10:47.237Z,981.07
2022-09-28T01:11:47.239Z,981.01
2022-09-28T01:12:47.219Z,981.02
2022-09-28T01:13:47.215Z,981.02
2022-09-28T01:14:47.212Z,981.05
2022-09-28T01:15:47.177Z,981.00
2022-09-28T01:16:47.195Z,980.97
2022-09-28T01:17:47.157Z,980.97
2022-09-28T01:18:47.155Z,980.95
2022-09-28T01:19:47.160Z,980.92
2022-09-28T01:20:47.107Z,980.89
2022-09-28T01:21:47.102Z,980.88
2022-09-28T01:22:47.089Z,980.85
2022-09-28T01:23:47.096Z,980.82
2022-09-28T01:24:47.100Z,980.83
2022-09-28T01:25:47.089Z,980.83
2022-09-28T01:26:47.087Z,980.81
2022-09-28T01:27:47.081Z,980.81
2022-09-28T01:28:47.078Z,980.78
2022-09-28T01:29:47.574Z,980.77
2022-09-28T01:30:47.017Z,980.77
2022-09-28T01:31:47.054Z,980.76
2022-09-28T01:32:46.956Z,980.76
2022-09-28T01:33:46.935Z,980.73
2022-09-28T01:34:46.967Z,980.76
2022-09-28T01:35:46.907Z,980.72
2022-09-28T01:36:46.895Z,980.76
2022-09-28T01:37:46.887Z,980.69
2022-09-28T01:38:46.868Z,980.71
2022-09-28T01:39:46.877Z,980.65
2022-09-28T01:40:46.863Z,980.67
2022-09-28T01:41:46.874Z,980.67
2022-09-28T01:42:46.829Z,980.65
2022-09-28T01:43:46.798Z,980.65
2022-09-28T01:44:46.807Z,980.71
2022-09-28T01:45:46.821Z,980.70
2022-09-28T01:46:46.759Z,980.67
2022-09-28T01:47:46.749Z,980.64
2022-09-28T01:48:46.737Z,980.69
2022-09-28T01:49:46.776Z,980.69
2022-09-28T01:50:46.774Z,980.70
2022-09-28T01:51:46.707Z,980.69
2022-09-28T01:52:46.674Z,980.66
2022-09-28T01:53:46.671Z,980.69
2022-09-28T01:54:46.739Z,980.66
2022-09-28T01:55:46.640Z,980.65
2022-09-28T01:56:46.628Z,980.64
2022-09-28T01:57:46.616Z,980.65
2022-09-28T01:58:46.596Z,980.63
2022-09-28T01:59:46.608Z,980.64
2022-09-28T02:00:46.657Z,980.66
2022-09-28T02:01:46.596Z,980.64
2022-09-28T02:02:46.545Z,980.67
2022-09-28T02:03:46.538Z,980.69
2022-09-28T02:04:46.536Z,980.66
2022-09-28T02:05:46.524Z,980.64
2022-09-28T02:06:46.486Z,980.58
2022-09-28T02:07:46.477Z,980.55
2022-09-28T02:08:46.466Z,980.54
2022-09-28T02:09:46.467Z,980.58
2022-09-28T02:10:46.438Z,980.58
2022-09-28T02:11:46.427Z,980.57
2022-09-28T02:12:46.416Z,980.59
2022-09-28T02:13:46.406Z,980.58
2022-09-28T02:14:46.407Z,980.56
2022-09-28T02:15:46.368Z,980.54
2022-09-28T02:16:46.422Z,980.52
2022-09-28T02:17:46.355Z,980.53
2022-09-28T02:18:46.325Z,980.54
2022-09-28T02:19:46.338Z,980.55
2022-09-28T02:20:46.307Z,980.57
2022-09-28T02:21:46.298Z,980.57
2022-09-28T02:22:46.279Z,980.55
2022-09-28T02:23:46.268Z,980.56
2022-09-28T02:24:46.266Z,980.57
2022-09-28T02:25:46.237Z,980.60
2022-09-28T02:26:46.226Z,980.60
2022-09-28T02:27:46.226Z,980.59
2022-09-28T02:28:46.200Z,980.54
2022-09-28T02:29:46.207Z,980.59
2022-09-28T02:30:46.177Z,980.57
2022-09-28T02:31:46.216Z,980.58
2022-09-28T02:32:46.155Z,980.62
2022-09-28T02:33:46.203Z,980.62
2022-09-28T02:34:46.142Z,980.64
2022-09-28T02:35:46.108Z,980.66
2022-09-28T02:36:46.097Z,980.66
2022-09-28T02:37:46.085Z,980.62
2022-09-28T02:38:46.090Z,980.66
2022-09-28T02:39:46.077Z,980.64
2022-09-28T02:40:46.124Z,980.64
2022-09-28T02:41:46.033Z,980.64
2022-09-28T02:42:46.069Z,980.64
2022-09-28T02:43:46.015Z,980.65
2022-09-28T02:44:46.022Z,980.65
2022-09-28T02:45:46.030Z,980.66
2022-09-28T02:46:45.956Z,980.67
2022-09-28T02:47:45.958Z,980.69
2022-09-28T02:48:55.781Z,980.67
2022-09-28T02:49:46.937Z,980.68
2022-09-28T02:50:45.929Z,980.69
2022-09-28T02:51:45.914Z,980.68
2022-09-28T02:52:45.890Z,980.70
2022-09-28T02:53:45.887Z,980.68
2022-09-28T02:54:45.891Z,980.65
2022-09-28T02:55:45.848Z,980.67
2022-09-28T02:56:45.819Z,980.66
2022-09-28T02:57:45.826Z,980.67
2022-09-28T02:58:45.795Z,980.66
2022-09-28T02:59:45.808Z,980.66
2022-09-28T03:00:45.792Z,980.67
2022-09-28T03:01:45.792Z,980.65
2022-09-28T03:02:45.747Z,980.65
2022-09-28T03:03:45.740Z,980.64
2022-09-28T03:04:45.738Z,980.65
2022-09-28T03:05:45.708Z,980.65
2022-09-28T03:06:45.688Z,980.65
2022-09-28T03:07:45.687Z,980.68
2022-09-28T03:08:45.666Z,980.65
2022-09-28T03:09:45.679Z,980.61
2022-09-28T03:10:45.636Z,980.64
2022-09-28T03:11:45.641Z,980.64
2022-09-28T03:12:45.616Z,980.65
2022-09-28T03:13:45.618Z,980.69
2022-09-28T03:14:45.610Z,980.62
2022-09-28T03:15:48.874Z,980.62
2022-09-28T03:16:46.372Z,980.67
2022-09-28T03:17:45.550Z,980.65
2022-09-28T03:18:45.538Z,980.65
2022-09-28T03:19:45.553Z,980.66
2022-09-28T03:20:45.506Z,980.66
2022-09-28T03:21:45.499Z,980.67
2022-09-28T03:23:00.229Z,980.66
2022-09-28T03:23:46.469Z,980.63
2022-09-28T03:24:45.479Z,980.64
2022-09-28T03:25:45.448Z,980.61
2022-09-28T03:26:45.431Z,980.66
2022-09-28T03:27:45.480Z,980.67
2022-09-28T03:28:45.399Z,980.63
2022-09-28T03:29:45.408Z,980.60
2022-09-28T03:30:45.382Z,980.63
2022-09-28T03:31:45.405Z,980.65
2022-09-28T03:32:45.348Z,980.68
2022-09-28T03:33:45.348Z,980.68
2022-09-28T03:34:45.350Z,980.67
2022-09-28T03:35:45.319Z,980.69
2022-09-28T03:36:45.299Z,980.69
2022-09-28T03:37:45.289Z,980.69
2022-09-28T03:38:45.271Z,980.73
2022-09-28T03:39:45.279Z,980.71
2022-09-28T03:40:45.455Z,980.73
2022-09-28T03:41:45.238Z,980.74
2022-09-28T03:42:45.219Z,980.72
2022-09-28T03:43:45.209Z,980.74
2022-09-28T03:44:45.208Z,980.71
2022-09-28T03:45:45.233Z,980.69
2022-09-28T03:46:45.167Z,980.70
2022-09-28T03:47:45.230Z,980.69
2022-09-28T03:48:45.139Z,980.71
2022-09-28T03:49:45.139Z,980.67
2022-09-28T03:50:45.110Z,980.69
2022-09-28T03:51:45.099Z,980.66
2022-09-28T03:52:45.093Z,980.62
2022-09-28T03:53:45.079Z,980.67
2022-09-28T03:54:49.033Z,980.68
2022-09-28T03:55:45.049Z,980.65
2022-09-28T03:56:45.038Z,980.67
2022-09-28T03:57:45.020Z,980.71
2022-09-28T03:58:44.999Z,980.69
2022-09-28T03:59:45.008Z,980.69
2022-09-28T04:00:44.998Z,980.73
2022-09-28T04:01:45.007Z,980.70
2022-09-28T04:02:44.947Z,980.70
2022-09-28T04:03:44.936Z,980.72
2022-09-28T04:04:44.939Z,980.70
2022-09-28T04:05:44.929Z,980.73
2022-09-28T04:06:44.890Z,980.75
2022-09-28T04:07:44.889Z,980.71
2022-09-28T04:08:44.889Z,980.70
2022-09-28T04:09:44.857Z,980.68
2022-09-28T04:10:44.848Z,980.68
2022-09-28T04:12:02.795Z,980.67
2022-09-28T04:12:45.820Z,980.66
2022-09-28T04:13:44.809Z,980.66
2022-09-28T04:14:44.800Z,980.68
2022-09-28T04:15:44.787Z,980.65
2022-09-28T04:16:44.804Z,980.67
2022-09-28T04:17:44.759Z,980.65
2022-09-28T04:18:44.735Z,980.64
2022-09-28T04:19:44.750Z,980.66
2022-09-28T04:20:44.719Z,980.66
2022-09-28T04:21:44.721Z,980.65
2022-09-28T04:22:44.661Z,980.67
2022-09-28T04:23:44.701Z,980.69
2022-09-28T04:24:44.711Z,980.70
2022-09-28T04:25:44.641Z,980.72
2022-09-28T04:26:44.637Z,980.68
2022-09-28T04:27:44.618Z,980.70
2022-09-28T04:28:44.606Z,980.70
2022-09-28T04:29:44.607Z,980.67
2022-09-28T04:30:44.579Z,980.64
2022-09-28T04:31:44.631Z,980.69
2022-09-28T04:32:44.561Z,980.63
2022-09-28T04:33:44.569Z,980.67
2022-09-28T04:34:44.673Z,980.68
2022-09-28T04:35:44.530Z,980.64
2022-09-28T04:36:44.534Z,980.66
2022-09-28T04:37:44.600Z,980.67
2022-09-28T04:38:53.498Z,980.68
2022-09-28T04:39:48.436Z,980.70
2022-09-28T04:40:44.498Z,980.70
2022-09-28T04:41:44.449Z,980.72
2022-09-28T04:42:44.421Z,980.74
2022-09-28T04:43:44.408Z,980.73
2022-09-28T04:44:44.407Z,980.73
2022-09-28T04:45:44.450Z,980.73
2022-09-28T04:46:44.380Z,980.75
2022-09-28T04:47:44.350Z,980.73
2022-09-28T04:48:44.341Z,980.71
2022-09-28T04:49:44.339Z,980.76
2022-09-28T04:50:51.609Z,980.78
2022-09-28T04:51:44.299Z,980.78
2022-09-28T04:52:44.286Z,980.79
2022-09-28T04:53:44.283Z,980.78
2022-09-28T04:54:44.333Z,980.79
2022-09-28T04:55:44.246Z,980.77
2022-09-28T04:56:44.239Z,980.79
2022-09-28T04:57:44.220Z,980.77
2022-09-28T04:58:46.865Z,980.84
2022-09-28T04:59:44.198Z,980.81
2022-09-28T05:00:44.250Z,980.82
2022-09-28T05:01:44.168Z,980.83
2022-09-28T05:02:44.198Z,980.89
2022-09-28T05:03:44.140Z,980.89
2022-09-28T05:04:44.141Z,980.89
2022-09-28T05:05:44.128Z,980.92
2022-09-28T05:06:44.099Z,980.91
2022-09-28T05:07:44.110Z,980.96
2022-09-28T05:08:44.081Z,981.00
2022-09-28T05:09:44.059Z,980.99
2022-09-28T05:10:44.069Z,981.00
2022-09-28T05:11:44.040Z,980.98
2022-09-28T05:12:44.019Z,980.97
2022-09-28T05:13:44.010Z,980.95
2022-09-28T05:14:43.989Z,980.99
2022-09-28T05:15:44.037Z,980.95
2022-09-28T05:16:44.005Z,980.97
2022-09-28T05:17:43.948Z,980.98
2022-09-28T05:18:43.972Z,981.03
2022-09-28T05:19:43.919Z,981.01
2022-09-28T05:20:43.933Z,981.03
2022-09-28T05:21:43.896Z,981.02
2022-09-28T05:22:43.878Z,981.01
2022-09-28T05:23:43.880Z,981.01
2022-09-28T05:24:43.859Z,981.01
2022-09-28T05:25:43.860Z,981.02
2022-09-28T05:26:43.848Z,981.05
2022-09-28T05:27:43.817Z,980.98
2022-09-28T05:28:43.820Z,981.00
2022-09-28T05:29:43.831Z,981.00
2022-09-28T05:30:43.809Z,980.99
2022-09-28T05:31:43.872Z,981.00
2022-09-28T05:32:43.757Z,981.05
2022-09-28T05:33:43.729Z,981.03
2022-09-28T05:34:43.726Z,981.04
2022-09-28T05:35:43.790Z,981.05
2022-09-28T05:36:43.709Z,981.06
2022-09-28T05:37:43.687Z,981.06
2022-09-28T05:38:43.661Z,981.08
2022-09-28T05:39:43.667Z,981.09
2022-09-28T05:40:43.749Z,981.09
2022-09-28T05:41:43.630Z,981.13
2022-09-28T05:42:43.619Z,981.10
2022-09-28T05:43:43.612Z,981.12
2022-09-28T05:44:43.602Z,981.12
2022-09-28T05:45:43.630Z,981.10
2022-09-28T05:46:43.568Z,981.09
2022-09-28T05:47:43.559Z,981.09
2022-09-28T05:48:43.599Z,981.06
2022-09-28T05:49:43.567Z,981.10
2022-09-28T05:50:43.519Z,981.08
2022-09-28T05:51:43.523Z,981.06
2022-09-28T05:52:43.488Z,981.07
2022-09-28T05:53:43.470Z,981.09
2022-09-28T05:54:43.446Z,981.09
2022-09-28T05:55:43.836Z,981.07
2022-09-28T05:56:43.450Z,981.04
2022-09-28T05:57:43.409Z,981.07
2022-09-28T05:58:43.419Z,981.09
2022-09-28T05:59:43.388Z,981.07
2022-09-28T06:00:43.390Z,981.08
2022-09-28T06:01:43.413Z,981.13
2022-09-28T06:02:43.437Z,981.12
2022-09-28T06:03:43.333Z,981.15
2022-09-28T06:04:43.354Z,981.16
2022-09-28T06:05:43.338Z,981.15
2022-09-28T06:06:43.294Z,981.14
2022-09-28T06:07:43.282Z,981.15
2022-09-28T06:08:43.281Z,981.19
2022-09-28T06:09:43.261Z,981.16
2022-09-28T06:10:43.270Z,981.19
2022-09-28T06:11:43.230Z,981.22
2022-09-28T06:12:43.219Z,981.21
2022-09-28T06:13:43.200Z,981.25
2022-09-28T06:14:43.203Z,981.28
2022-09-28T06:15:43.197Z,981.29
2022-09-28T06:16:44.067Z,981.25
2022-09-28T06:17:43.140Z,981.22
2022-09-28T06:18:43.138Z,981.23
2022-09-28T06:19:43.118Z,981.21
2022-09-28T06:20:43.136Z,981.24
2022-09-28T06:21:43.098Z,981.23
2022-09-28T06:22:43.092Z,981.27
2022-09-28T06:23:48.153Z,981.21
2022-09-28T06:24:44.059Z,981.21
2022-09-28T06:25:43.078Z,981.21
2022-09-28T06:26:43.043Z,981.24
2022-09-28T06:27:43.018Z,981.23
2022-09-28T06:28:43.008Z,981.26
2022-09-28T06:29:42.992Z,981.31
2022-09-28T06:30:43.041Z,981.30
2022-09-28T06:31:42.968Z,981.33
2022-09-28T06:32:42.951Z,981.36
2022-09-28T06:33:42.951Z,981.35
2022-09-28T06:34:42.931Z,981.40
2022-09-28T06:35:42.940Z,981.38
2022-09-28T06:36:42.922Z,981.40
2022-09-28T06:37:42.878Z,981.35
2022-09-28T06:38:42.880Z,981.40
2022-09-28T06:39:42.864Z,981.42
2022-09-28T06:40:42.892Z,981.47
2022-09-28T06:41:42.851Z,981.46
2022-09-28T06:42:42.821Z,981.47
2022-09-28T06:43:42.810Z,981.46
2022-09-28T06:44:42.804Z,981.49
2022-09-28T06:45:42.854Z,981.49
2022-09-28T06:46:42.791Z,981.50
2022-09-28T06:47:42.774Z,981.46
2022-09-28T06:48:42.784Z,981.48
2022-09-28T06:49:42.729Z,981.46
2022-09-28T06:50:42.721Z,981.48
2022-09-28T06:51:42.711Z,981.47
2022-09-28T06:52:42.691Z,981.45
2022-09-28T06:53:42.673Z,981.50
2022-09-28T06:54:42.775Z,981.52
2022-09-28T06:55:42.651Z,981.50
2022-09-28T06:56:42.700Z,981.51
2022-09-28T06:57:42.643Z,981.53
2022-09-28T06:58:42.601Z,981.54
2022-09-28T06:59:42.590Z,981.55
2022-09-28T07:00:42.590Z,981.54
2022-09-28T07:01:42.684Z,981.57
2022-09-28T07:02:42.724Z,981.57
2022-09-28T07:03:42.551Z,981.58
2022-09-28T07:04:42.541Z,981.56
2022-09-28T07:05:42.519Z,981.60
2022-09-28T07:06:42.522Z,981.58
2022-09-28T07:07:42.493Z,981.60
2022-09-28T07:08:42.492Z,981.60
2022-09-28T07:09:46.491Z,981.63
2022-09-28T07:10:43.461Z,981.62
2022-09-28T07:11:42.459Z,981.66
2022-09-28T07:12:42.429Z,981.64
2022-09-28T07:13:50.456Z,981.69
2022-09-28T07:14:47.673Z,981.67
2022-09-28T07:15:42.384Z,981.73
2022-09-28T07:17:09.744Z,981.73
2022-09-28T07:17:56.937Z,981.70
2022-09-28T07:18:43.343Z,981.73
2022-09-28T07:19:42.330Z,981.72
2022-09-28T07:20:52.081Z,981.78
2022-09-28T07:21:43.898Z,981.75
2022-09-28T07:22:43.857Z,981.75
2022-09-28T07:23:52.394Z,981.81
2022-09-28T07:24:43.277Z,981.82
2022-09-28T07:25:42.259Z,981.84
2022-09-28T07:26:42.271Z,981.86
2022-09-28T07:27:42.252Z,981.88
2022-09-28T07:28:42.198Z,981.90
2022-09-28T07:29:42.198Z,981.87
2022-09-28T07:30:42.274Z,981.91
2022-09-28T07:31:42.183Z,981.93
2022-09-28T07:32:42.162Z,981.90
2022-09-28T07:33:42.153Z,981.93
2022-09-28T07:34:42.131Z,982.02
2022-09-28T07:35:42.114Z,981.97
2022-09-28T07:36:42.145Z,981.96
2022-09-28T07:37:42.092Z,982.03
2022-09-28T07:38:42.084Z,982.08
2022-09-28T07:39:42.068Z,982.06
2022-09-28T07:40:45.129Z,982.04
2022-09-28T07:41:43.174Z,982.03
2022-09-28T07:42:42.012Z,982.02
2022-09-28T07:43:42.002Z,982.06
2022-09-28T07:44:42.021Z,982.08
2022-09-28T07:45:42.037Z,982.09
2022-09-28T07:46:42.013Z,982.11
2022-09-28T07:47:41.962Z,982.12
2022-09-28T07:48:41.953Z,982.16
2022-09-28T07:49:41.931Z,982.17
2022-09-28T07:50:41.940Z,982.20
2022-09-28T07:51:41.920Z,982.14
2022-09-28T07:52:41.891Z,982.21
2022-09-28T07:53:41.878Z,982.20
2022-09-28T07:54:41.872Z,982.17
2022-09-28T07:55:41.842Z,982.17
2022-09-28T07:56:41.864Z,982.16
2022-09-28T07:57:41.830Z,982.16
2022-09-28T07:58:41.826Z,982.17
2022-09-28T07:59:41.797Z,982.16
2022-09-28T08:00:41.802Z,982.20
2022-09-28T08:01:41.857Z,982.20
2022-09-28T08:02:41.813Z,982.21
2022-09-28T08:03:41.742Z,982.23
2022-09-28T08:04:41.732Z,982.27
2022-09-28T08:05:41.716Z,982.27
2022-09-28T08:06:41.721Z,982.29
2022-09-28T08:07:41.679Z,982.30
2022-09-28T08:08:41.680Z,982.36
2022-09-28T08:09:41.653Z,982.32
2022-09-28T08:10:45.804Z,982.38
2022-09-28T08:11:42.643Z,982.37
2022-09-28T08:12:41.622Z,982.39
2022-09-28T08:13:41.612Z,982.40
2022-09-28T08:14:41.600Z,982.37
2022-09-28T08:15:41.576Z,982.36
2022-09-28T08:16:41.563Z,982.43
2022-09-28T08:17:41.621Z,982.41
2022-09-28T08:18:41.541Z,982.42
2022-09-28T08:19:41.523Z,982.42
2022-09-28T08:20:41.522Z,982.49
2022-09-28T08:21:41.502Z,982.52
2022-09-28T08:22:41.501Z,982.53
2022-09-28T08:23:41.453Z,982.55
2022-09-28T08:24:41.456Z,982.55
2022-09-28T08:25:41.547Z,982.54
2022-09-28T08:26:41.432Z,982.55
2022-09-28T08:27:41.742Z,982.58
2022-09-28T08:28:41.422Z,982.56
2022-09-28T08:29:41.384Z,982.62
2022-09-28T08:30:41.409Z,982.59
2022-09-28T08:31:41.353Z,982.61
2022-09-28T08:32:41.373Z,982.61
2022-09-28T08:33:41.372Z,982.61
2022-09-28T08:34:41.360Z,982.64
2022-09-28T08:35:41.413Z,982.63
2022-09-28T08:36:41.311Z,982.61
2022-09-28T08:37:42.436Z,982.63
2022-09-28T08:38:41.264Z,982.67
2022-09-28T08:39:41.243Z,982.64
2022-09-28T08:40:41.261Z,982.66
2022-09-28T08:41:41.247Z,982.69
2022-09-28T08:42:41.212Z,982.70
2022-09-28T08:43:41.196Z,982.69
2022-09-28T08:44:41.190Z,982.71
2022-09-28T08:45:41.431Z,982.74
2022-09-28T08:46:41.179Z,982.73
2022-09-28T08:47:41.123Z,982.74
2022-09-28T08:48:41.130Z,982.74
2022-09-28T08:49:41.117Z,982.76
2022-09-28T08:50:41.106Z,982.77
2022-09-28T08:51:41.112Z,982.80
2022-09-28T08:52:41.343Z,982.80
2022-09-28T08:53:41.073Z,982.82
2022-09-28T08:54:41.062Z,982.81
2022-09-28T08:55:41.043Z,982.81
2022-09-28T08:56:41.041Z,982.81
2022-09-28T08:57:41.003Z,982.79
2022-09-28T08:58:41.027Z,982.83
2022-09-28T08:59:40.980Z,982.84
2022-09-28T09:00:40.966Z,982.83
2022-09-28T09:01:41.015Z,982.86
2022-09-28T09:02:40.982Z,982.84
2022-09-28T09:03:40.922Z,982.86
2022-09-28T09:04:40.912Z,982.87
2022-09-28T09:05:40.895Z,982.85
2022-09-28T09:06:40.894Z,982.88
2022-09-28T09:07:40.873Z,982.88
2022-09-28T09:08:40.847Z,982.88
2022-09-28T09:09:40.843Z,982.88
2022-09-28T09:10:40.823Z,982.92
2022-09-28T09:11:40.824Z,982.93
2022-09-28T09:12:40.834Z,982.92
2022-09-28T09:13:40.795Z,982.90
2022-09-28T09:14:40.764Z,982.94
2022-09-28T09:15:40.795Z,982.95
2022-09-28T09:16:40.824Z,982.95
2022-09-28T09:17:40.745Z,983.01
2022-09-28T09:18:40.774Z,983.00
2022-09-28T09:19:40.714Z,982.99
2022-09-28T09:20:40.681Z,983.01
2022-09-28T09:21:40.672Z,983.05
2022-09-28T09:22:40.695Z,983.01
2022-09-28T09:23:40.713Z,983.04
2022-09-28T09:24:40.645Z,982.99
2022-09-28T09:25:40.624Z,982.99
2022-09-28T09:26:40.603Z,982.97
2022-09-28T09:27:40.605Z,983.02
2022-09-28T09:28:40.574Z,983.03
2022-09-28T09:29:40.564Z,983.02
2022-09-28T09:30:40.631Z,982.97
2022-09-28T09:31:40.542Z,983.02
2022-09-28T09:32:40.534Z,982.97
2022-09-28T09:33:40.513Z,982.96
2022-09-28T09:34:40.506Z,983.05
2022-09-28T09:35:40.493Z,983.07
2022-09-28T09:36:41.277Z,983.06
2022-09-28T09:37:40.465Z,983.02
2022-09-28T09:38:40.433Z,983.02
2022-09-28T09:39:40.433Z,983.02
2022-09-28T09:40:40.461Z,983.05
2022-09-28T09:41:40.394Z,983.02
2022-09-28T09:42:40.409Z,983.04
2022-09-28T09:43:40.382Z,983.00
2022-09-28T09:44:40.353Z,983.04
2022-09-28T09:45:40.376Z,983.02
2022-09-28T09:46:40.328Z,983.01
2022-09-28T09:47:40.326Z,983.03
2022-09-28T09:48:40.305Z,983.02
2022-09-28T09:49:40.285Z,983.01
2022-09-28T09:50:40.246Z,983.08
2022-09-28T09:51:40.273Z,983.01
2022-09-28T09:52:43.679Z,983.04
2022-09-28T09:53:40.246Z,983.02
2022-09-28T09:54:40.225Z,983.04
2022-09-28T09:55:40.218Z,982.98
2022-09-28T09:56:40.265Z,983.06
2022-09-28T09:57:40.206Z,982.99
2022-09-28T09:58:40.166Z,983.06
2022-09-28T09:59:40.167Z,983.03
2022-09-28T10:00:40.159Z,983.01
2022-09-28T10:01:40.206Z,983.02
2022-09-28T10:02:40.168Z,983.02
2022-09-28T10:03:40.108Z,983.00
2022-09-28T10:04:40.086Z,983.00
2022-09-28T10:05:40.083Z,983.04
2022-09-28T10:06:40.062Z,983.09
2022-09-28T10:07:43.219Z,983.09
2022-09-28T10:08:40.037Z,983.09
2022-09-28T10:09:40.152Z,983.10
2022-09-28T10:10:40.047Z,983.10
2022-09-28T10:11:40.026Z,983.16
2022-09-28T10:12:39.976Z,983.15
2022-09-28T10:13:39.986Z,983.19
2022-09-28T10:14:39.940Z,983.17
2022-09-28T10:15:39.936Z,983.23
2022-09-28T10:16:40.050Z,983.20
2022-09-28T10:17:39.935Z,983.21
2022-09-28T10:18:39.920Z,983.19
2022-09-28T10:19:39.896Z,983.19
2022-09-28T10:20:39.870Z,983.22
2022-09-28T10:21:39.876Z,983.21
2022-09-28T10:22:39.837Z,983.20
2022-09-28T10:23:39.857Z,983.20
2022-09-28T10:24:39.822Z,983.22
2022-09-28T10:25:39.821Z,983.24
2022-09-28T10:26:39.786Z,983.24
2022-09-28T10:27:39.794Z,983.26
2022-09-28T10:28:39.793Z,983.27
2022-09-28T10:29:39.756Z,983.28
2022-09-28T10:30:39.822Z,983.26
2022-09-28T10:31:39.718Z,983.25
2022-09-28T10:32:39.719Z,983.26
2022-09-28T10:33:39.744Z,983.30
2022-09-28T10:34:39.677Z,983.28
2022-09-28T10:35:39.746Z,983.31
2022-09-28T10:36:39.645Z,983.28
2022-09-28T10:37:39.637Z,983.25
2022-09-28T10:38:39.638Z,983.30
2022-09-28T10:39:39.616Z,983.28
2022-09-28T10:40:39.681Z,983.32
2022-09-28T10:41:39.587Z,983.34
2022-09-28T10:42:39.569Z,983.33
2022-09-28T10:43:39.578Z,983.33
2022-09-28T10:44:39.546Z,983.35
2022-09-28T10:45:39.618Z,983.30
2022-09-28T10:46:39.507Z,983.35
2022-09-28T10:47:39.499Z,983.34
2022-09-28T10:48:40.060Z,983.40
2022-09-28T10:49:43.127Z,983.41
2022-09-28T10:50:40.456Z,983.42
2022-09-28T10:51:39.447Z,983.39
2022-09-28T10:52:39.428Z,983.45
2022-09-28T10:53:39.438Z,983.42
2022-09-28T10:54:39.409Z,983.42
2022-09-28T10:55:39.386Z,983.43
2022-09-28T10:56:39.409Z,983.42
2022-09-28T10:57:39.379Z,983.45
2022-09-28T10:58:46.617Z,983.40
2022-09-28T10:59:39.337Z,983.41
2022-09-28T11:00:39.335Z,983.45
2022-09-28T11:01:39.352Z,983.41
2022-09-28T11:02:39.335Z,983.40
2022-09-28T11:03:39.297Z,983.41
2022-09-28T11:04:39.265Z,983.43
2022-09-28T11:05:39.252Z,983.41
2022-09-28T11:06:39.227Z,983.42
2022-09-28T11:07:39.229Z,983.41
2022-09-28T11:08:39.226Z,983.43
2022-09-28T11:09:39.198Z,983.41
2022-09-28T11:10:39.178Z,983.39
2022-09-28T11:11:39.167Z,983.41
2022-09-28T11:12:39.156Z,983.39
2022-09-28T11:13:39.171Z,983.37
2022-09-28T11:14:42.445Z,983.34
2022-09-28T11:15:39.119Z,983.37
2022-09-28T11:16:39.164Z,983.28
2022-09-28T11:17:39.088Z,983.30
2022-09-28T11:18:39.074Z,983.29
2022-09-28T11:19:39.068Z,983.30
2022-09-28T11:20:40.714Z,983.25
2022-09-28T11:21:39.036Z,983.23
2022-09-28T11:22:39.017Z,983.15
2022-09-28T11:23:39.026Z,983.15
2022-09-28T11:24:38.994Z,983.12
2022-09-28T11:25:38.977Z,983.14
2022-09-28T11:26:38.968Z,983.21
2022-09-28T11:27:38.957Z,983.10
2022-09-28T11:28:38.957Z,983.16
2022-09-28T11:29:38.941Z,983.19
2022-09-28T11:30:38.955Z,983.21
2022-09-28T11:31:38.898Z,983.21
2022-09-28T11:32:38.887Z,983.23
2022-09-28T11:33:38.899Z,983.24
2022-09-28T11:34:58.098Z,983.27
2022-09-28T11:35:39.849Z,983.30
2022-09-28T11:36:38.860Z,983.34
2022-09-28T11:37:38.826Z,983.37
2022-09-28T11:38:38.819Z,983.43
2022-09-28T11:39:38.799Z,983.44
2022-09-28T11:40:38.834Z,983.39
2022-09-28T11:41:38.768Z,983.42
2022-09-28T11:42:38.768Z,983.41
2022-09-28T11:43:38.770Z,983.39
2022-09-28T11:44:38.729Z,983.35
2022-09-28T11:45:38.781Z,983.28
2022-09-28T11:46:38.700Z,983.30
2022-09-28T11:47:38.697Z,983.27
2022-09-28T11:48:38.708Z,983.30
2022-09-28T11:49:38.658Z,983.30
2022-09-28T11:50:38.637Z,983.33
2022-09-28T11:51:38.644Z,983.30
2022-09-28T11:52:38.619Z,983.30
2022-09-28T11:53:38.630Z,983.31
2022-09-28T11:54:38.598Z,983.28
2022-09-28T11:55:38.609Z,983.29
2022-09-28T11:56:38.831Z,983.29
2022-09-28T11:57:38.596Z,983.21
2022-09-28T11:58:38.735Z,983.19
2022-09-28T11:59:38.691Z,983.16
2022-09-28T12:00:38.605Z,983.17
2022-09-28T12:01:38.585Z,983.22
2022-09-28T12:02:38.663Z,983.24
2022-09-28T12:03:38.688Z,983.21
2022-09-28T12:04:38.605Z,983.18
2022-09-28T12:05:38.472Z,983.15
2022-09-28T12:06:38.711Z,983.17
2022-09-28T12:07:38.542Z,983.19
2022-09-28T12:08:38.452Z,983.14
2022-09-28T12:09:38.454Z,983.14
2022-09-28T12:10:42.168Z,983.18
2022-09-28T12:11:39.457Z,983.16
2022-09-28T12:12:38.383Z,983.18
2022-09-28T12:13:38.378Z,983.17
2022-09-28T12:14:38.331Z,983.22
2022-09-28T12:16:07.478Z,983.17
2022-09-28T12:17:04.381Z,983.19
2022-09-28T12:17:39.458Z,983.23
2022-09-28T12:18:38.292Z,983.16
2022-09-28T12:19:38.341Z,983.20
2022-09-28T12:20:38.251Z,983.21
2022-09-28T12:21:38.350Z,983.21
2022-09-28T12:22:38.433Z,983.14
2022-09-28T12:23:38.529Z,983.17
2022-09-28T12:24:38.275Z,983.19
2022-09-28T12:25:38.212Z,983.23
2022-09-28T12:26:38.291Z,983.19
2022-09-28T12:27:38.173Z,983.23
2022-09-28T12:28:38.273Z,983.26